sensor_id;sensor_type;location;lat;lon;timestamp;pressure;altitude;pressure_sealevel;temperature;humidity
63691;BME280;49837;57.280;27.070;2023-03-15T00:00:34;97934.5;;;4.17;100.0
63691;BME280;49837;57.280;27.070;2023-03-15T00:01:35;97930.0;;;4.19;100.0
63691;BME280;49837;57.280;27.070;2023-03-15T00:02:35;97928.17;;;4.24;100.0
63691;BME280;49837;57.280;27.070;2023-03-15T00:03:35;97931.72;;;4.18;100.0
63691;BME280;49837;57.280;27.070;2023-03-15T00:04:36;97933.6;;;4.23;100.0
63691;BME280;49837;57.280;27.070;2023-03-15T00:05:36;97939.19;;;4.15;100.0
63691;BME280;49837;57.280;27.070;2023-03-15T00:06:38;97939.02;;;4.21;100.0
63691;BME280;49837;57.280;27.070;2023-03-15T00:07:38;97940.18;;;4.26;100.0
63691;BME280;49837;57.280;27.070;2023-03-15T00:08:38;97934.59;;;4.23;100.0
63691;BME280;49837;57.280;27.070;2023-03-15T00:09:39;97932.24;;;4.28;100.0
63691;BME280;49837;57.280;27.070;2023-03-15T00:10:43;97930.42;;;4.28;100.0
63691;BME280;49837;57.280;27.070;2023-03-15T00:11:41;97920.34;;;4.16;100.0
63691;BME280;49837;57.280;27.070;2023-03-15T00:12:42;97921.22;;;4.23;100.0
63691;BME280;49837;57.280;27.070;2023-03-15T00:13:42;97909.55;;;4.22;100.0
63691;BME280;49837;57.280;27.070;2023-03-15T00:14:42;97916.06;;;4.2;100.0
63691;BME280;49837;57.280;27.070;2023-03-15T00:15:48;97910.18;;;4.21;100.0
63691;BME280;49837;57.280;27.070;2023-03-15T00:16:46;97920.27;;;4.22;100.0
63691;BME280;49837;57.280;27.070;2023-03-15T00:17:46;97918.89;;;4.21;100.0
63691;BME280;49837;57.280;27.070;2023-03-15T00:18:47;97922.83;;;4.24;100.0
63691;BME280;49837;57.280;27.070;2023-03-15T00:19:47;97929.12;;;4.21;100.0
63691;BME280;49837;57.280;27.070;2023-03-15T00:20:48;97924.31;;;4.24;100.0
63691;BME280;49837;57.280;27.070;2023-03-15T00:21:48;97932.5;;;4.2;100.0
63691;BME280;49837;57.280;27.070;2023-03-15T00:22:48;97937.67;;;4.2;100.0
63691;BME280;49837;57.280;27.070;2023-03-15T00:23:49;97936.91;;;4.25;100.0
63691;BME280;49837;57.280;27.070;2023-03-15T00:24:49;97936.67;;;4.22;100.0
63691;BME280;49837;57.280;27.070;2023-03-15T00:25:50;97938.59;;;4.22;100.0
63691;BME280;49837;57.280;27.070;2023-03-15T00:26:50;97942.73;;;4.2;100.0
63691;BME280;49837;57.280;27.070;2023-03-15T00:27:50;97944.52;;;4.18;100.0
63691;BME280;49837;57.280;27.070;2023-03-15T00:28:51;97943.45;;;4.24;100.0
63691;BME280;49837;57.280;27.070;2023-03-15T00:29:51;97942.66;;;4.26;100.0
63691;BME280;49837;57.280;27.070;2023-03-15T00:31:53;97945.06;;;4.21;100.0
63691;BME280;49837;57.280;27.070;2023-03-15T00:32:54;97946.2;;;4.19;100.0
63691;BME280;49837;57.280;27.070;2023-03-15T00:33:54;97939.26;;;4.26;100.0
63691;BME280;49837;57.280;27.070;2023-03-15T00:34:54;97937.04;;;4.26;100.0
63691;BME280;49837;57.280;27.070;2023-03-15T00:35:55;97934.41;;;4.26;100.0
63691;BME280;49837;57.280;27.070;2023-03-15T00:36:55;97938.71;;;4.23;100.0
63691;BME280;49837;57.280;27.070;2023-03-15T00:37:55;97941.31;;;4.24;100.0
63691;BME280;49837;57.280;27.070;2023-03-15T00:38:56;97946.36;;;4.26;100.0
63691;BME280;49837;57.280;27.070;2023-03-15T00:39:56;97952.2;;;4.24;100.0
63691;BME280;49837;57.280;27.070;2023-03-15T00:40:57;97956.05;;;4.23;100.0
63691;BME280;49837;57.280;27.070;2023-03-15T00:41:57;97952.3;;;4.26;100.0
63691;BME280;49837;57.280;27.070;2023-03-15T00:42:57;97955.83;;;4.09;100.0
63691;BME280;49837;57.280;27.070;2023-03-15T00:43:58;97961.03;;;4.12;100.0
63691;BME280;49837;57.280;27.070;2023-03-15T00:44:58;97962.53;;;4.09;100.0
63691;BME280;49837;57.280;27.070;2023-03-15T00:45:59;97955.55;;;4.13;100.0
63691;BME280;49837;57.280;27.070;2023-03-15T00:46:59;97960.78;;;4.2;100.0
63691;BME280;49837;57.280;27.070;2023-03-15T00:47:59;97956.19;;;4.21;100.0
63691;BME280;49837;57.280;27.070;2023-03-15T00:49:00;97954.23;;;4.06;100.0
63691;BME280;49837;57.280;27.070;2023-03-15T00:50:00;97954.38;;;4.15;100.0
63691;BME280;49837;57.280;27.070;2023-03-15T00:51:05;97951.3;;;4.15;100.0
63691;BME280;49837;57.280;27.070;2023-03-15T00:52:04;97954.97;;;4.29;100.0
63691;BME280;49837;57.280;27.070;2023-03-15T00:53:03;97961.41;;;4.15;100.0
63691;BME280;49837;57.280;27.070;2023-03-15T00:54:03;97960.1;;;4.12;100.0
63691;BME280;49837;57.280;27.070;2023-03-15T00:55:04;97960.09;;;4.18;100.0
63691;BME280;49837;57.280;27.070;2023-03-15T00:56:06;97957.74;;;4.2;100.0
63691;BME280;49837;57.280;27.070;2023-03-15T00:57:04;97960.23;;;4.18;100.0
63691;BME280;49837;57.280;27.070;2023-03-15T00:58:05;97958.55;;;4.19;100.0
63691;BME280;49837;57.280;27.070;2023-03-15T00:59:05;97954.45;;;4.2;100.0
63691;BME280;49837;57.280;27.070;2023-03-15T01:01:12;97958.42;;;4.17;100.0
63691;BME280;49837;57.280;27.070;2023-03-15T01:02:11;97953.94;;;4.12;100.0
63691;BME280;49837;57.280;27.070;2023-03-15T01:03:11;97949.03;;;4.14;100.0
63691;BME280;49837;57.280;27.070;2023-03-15T01:04:11;97948.22;;;4.18;100.0
63691;BME280;49837;57.280;27.070;2023-03-15T01:05:12;97952.59;;;4.21;100.0
63691;BME280;49837;57.280;27.070;2023-03-15T01:06:17;97954.31;;;4.25;100.0
63691;BME280;49837;57.280;27.070;2023-03-15T01:07:15;97962.17;;;4.29;100.0
63691;BME280;49837;57.280;27.070;2023-03-15T01:08:16;97959.09;;;4.21;100.0
63691;BME280;49837;57.280;27.070;2023-03-15T01:09:16;97961.09;;;4.23;100.0
63691;BME280;49837;57.280;27.070;2023-03-15T01:10:17;97958.23;;;4.3;100.0
63691;BME280;49837;57.280;27.070;2023-03-15T01:11:20;97953.76;;;4.29;100.0
63691;BME280;49837;57.280;27.070;2023-03-15T01:12:17;97953.85;;;4.24;100.0
63691;BME280;49837;57.280;27.070;2023-03-15T01:13:18;97955.0;;;4.2;100.0
63691;BME280;49837;57.280;27.070;2023-03-15T01:14:18;97957.35;;;4.19;100.0
63691;BME280;49837;57.280;27.070;2023-03-15T01:15:19;97951.55;;;4.2;100.0
63691;BME280;49837;57.280;27.070;2023-03-15T01:16:20;97948.59;;;4.26;100.0
63691;BME280;49837;57.280;27.070;2023-03-15T01:17:19;97947.47;;;4.31;100.0
63691;BME280;49837;57.280;27.070;2023-03-15T01:18:20;97946.76;;;4.24;100.0
63691;BME280;49837;57.280;27.070;2023-03-15T01:19:20;97946.23;;;4.19;100.0
63691;BME280;49837;57.280;27.070;2023-03-15T01:20:20;97944.58;;;4.19;100.0
63691;BME280;49837;57.280;27.070;2023-03-15T01:21:22;97944.62;;;4.22;100.0
63691;BME280;49837;57.280;27.070;2023-03-15T01:22:21;97952.17;;;4.15;100.0
63691;BME280;49837;57.280;27.070;2023-03-15T01:23:21;97950.38;;;4.12;100.0
63691;BME280;49837;57.280;27.070;2023-03-15T01:24:22;97952.02;;;4.12;100.0
63691;BME280;49837;57.280;27.070;2023-03-15T01:25:22;97956.56;;;4.08;100.0
63691;BME280;49837;57.280;27.070;2023-03-15T01:26:23;97960.75;;;4.14;100.0
63691;BME280;49837;57.280;27.070;2023-03-15T01:27:23;97961.84;;;4.19;100.0
63691;BME280;49837;57.280;27.070;2023-03-15T01:28:23;97963.69;;;4.24;100.0
63691;BME280;49837;57.280;27.070;2023-03-15T01:29:24;97967.3;;;4.18;100.0
63691;BME280;49837;57.280;27.070;2023-03-15T01:30:24;97965.52;;;4.18;100.0
63691;BME280;49837;57.280;27.070;2023-03-15T01:31:28;97971.36;;;4.18;100.0
63691;BME280;49837;57.280;27.070;2023-03-15T01:32:26;97972.78;;;4.21;100.0
63691;BME280;49837;57.280;27.070;2023-03-15T01:33:27;97970.86;;;4.24;100.0
63691;BME280;49837;57.280;27.070;2023-03-15T01:34:27;97973.38;;;4.06;100.0
63691;BME280;49837;57.280;27.070;2023-03-15T01:35:27;97977.66;;;4.13;100.0
63691;BME280;49837;57.280;27.070;2023-03-15T01:36:30;97970.91;;;4.16;100.0
63691;BME280;49837;57.280;27.070;2023-03-15T01:37:28;97973.26;;;4.2;100.0
63691;BME280;49837;57.280;27.070;2023-03-15T01:38:29;97973.02;;;4.15;100.0
63691;BME280;49837;57.280;27.070;2023-03-15T01:39:29;97976.12;;;4.03;100.0
63691;BME280;49837;57.280;27.070;2023-03-15T01:40:29;97974.23;;;4.05;100.0
63691;BME280;49837;57.280;27.070;2023-03-15T01:41:29;97969.7;;;4.14;100.0
63691;BME280;49837;57.280;27.070;2023-03-15T01:42:30;97978.91;;;4.25;100.0
63691;BME280;49837;57.280;27.070;2023-03-15T01:43:34;97976.02;;;4.27;100.0
63691;BME280;49837;57.280;27.070;2023-03-15T01:46:33;97977.91;;;4.21;100.0
63691;BME280;49837;57.280;27.070;2023-03-15T01:47:33;97979.15;;;4.23;100.0
63691;BME280;49837;57.280;27.070;2023-03-15T01:48:40;97978.13;;;4.21;100.0
63691;BME280;49837;57.280;27.070;2023-03-15T01:49:37;97979.33;;;4.24;100.0
63691;BME280;49837;57.280;27.070;2023-03-15T01:50:38;97981.3;;;4.27;100.0
63691;BME280;49837;57.280;27.070;2023-03-15T01:52:42;97984.5;;;4.15;100.0
63691;BME280;49837;57.280;27.070;2023-03-15T01:53:46;97985.97;;;4.13;100.0
63691;BME280;49837;57.280;27.070;2023-03-15T01:54:51;97987.69;;;4.13;100.0
63691;BME280;49837;57.280;27.070;2023-03-15T01:55:50;97985.63;;;4.19;100.0
63691;BME280;49837;57.280;27.070;2023-03-15T01:56:54;97986.79;;;4.13;100.0
63691;BME280;49837;57.280;27.070;2023-03-15T01:57:56;97985.06;;;4.15;100.0
63691;BME280;49837;57.280;27.070;2023-03-15T01:58:57;97986.05;;;4.28;100.0
63691;BME280;49837;57.280;27.070;2023-03-15T02:00:00;97983.55;;;4.31;100.0
63691;BME280;49837;57.280;27.070;2023-03-15T02:00:59;97985.71;;;4.28;100.0
63691;BME280;49837;57.280;27.070;2023-03-15T02:01:59;97980.88;;;4.25;100.0
63691;BME280;49837;57.280;27.070;2023-03-15T02:03:10;97980.75;;;4.13;100.0
63691;BME280;49837;57.280;27.070;2023-03-15T02:04:06;97980.89;;;4.12;100.0
63691;BME280;49837;57.280;27.070;2023-03-15T02:05:08;97986.23;;;4.08;100.0
63691;BME280;49837;57.280;27.070;2023-03-15T02:06:08;97987.66;;;4.12;100.0
63691;BME280;49837;57.280;27.070;2023-03-15T02:07:08;97984.58;;;4.08;100.0
63691;BME280;49837;57.280;27.070;2023-03-15T02:08:08;97989.97;;;4.12;100.0
63691;BME280;49837;57.280;27.070;2023-03-15T02:09:09;97989.87;;;4.23;100.0
63691;BME280;49837;57.280;27.070;2023-03-15T02:10:11;97993.11;;;4.29;100.0
63691;BME280;49837;57.280;27.070;2023-03-15T02:11:12;97990.02;;;4.15;100.0
63691;BME280;49837;57.280;27.070;2023-03-15T02:12:11;97984.61;;;4.24;100.0
63691;BME280;49837;57.280;27.070;2023-03-15T02:13:14;97988.08;;;4.25;100.0
63691;BME280;49837;57.280;27.070;2023-03-15T02:14:13;97983.93;;;4.23;100.0
63691;BME280;49837;57.280;27.070;2023-03-15T02:15:13;97981.62;;;4.27;100.0
63691;BME280;49837;57.280;27.070;2023-03-15T02:16:14;97983.81;;;4.2;100.0
63691;BME280;49837;57.280;27.070;2023-03-15T02:17:14;97986.09;;;4.03;100.0
63691;BME280;49837;57.280;27.070;2023-03-15T02:18:15;97983.16;;;4.13;100.0
63691;BME280;49837;57.280;27.070;2023-03-15T02:23:25;97987.98;;;4.25;100.0
63691;BME280;49837;57.280;27.070;2023-03-15T02:24:44;97988.09;;;4.29;100.0
63691;BME280;49837;57.280;27.070;2023-03-15T02:26:41;97991.42;;;4.18;100.0
63691;BME280;49837;57.280;27.070;2023-03-15T02:27:34;97993.98;;;4.26;100.0
63691;BME280;49837;57.280;27.070;2023-03-15T02:28:34;97993.61;;;4.27;100.0
63691;BME280;49837;57.280;27.070;2023-03-15T02:29:34;97998.48;;;4.29;100.0
63691;BME280;49837;57.280;27.070;2023-03-15T02:30:35;98001.39;;;4.22;100.0
63691;BME280;49837;57.280;27.070;2023-03-15T02:31:35;98004.39;;;4.3;100.0
63691;BME280;49837;57.280;27.070;2023-03-15T02:32:35;98005.04;;;4.26;100.0
63691;BME280;49837;57.280;27.070;2023-03-15T02:33:43;98005.83;;;4.2;100.0
63691;BME280;49837;57.280;27.070;2023-03-15T02:34:36;98000.46;;;4.18;100.0
63691;BME280;49837;57.280;27.070;2023-03-15T02:35:37;97995.77;;;4.24;100.0
63691;BME280;49837;57.280;27.070;2023-03-15T02:36:37;97994.08;;;4.31;100.0
63691;BME280;49837;57.280;27.070;2023-03-15T02:37:37;97983.88;;;4.2;100.0
63691;BME280;49837;57.280;27.070;2023-03-15T02:38:38;97985.14;;;4.24;100.0
63691;BME280;49837;57.280;27.070;2023-03-15T02:39:39;97983.16;;;4.13;100.0
63691;BME280;49837;57.280;27.070;2023-03-15T02:40:39;97985.38;;;4.13;100.0
63691;BME280;49837;57.280;27.070;2023-03-15T02:41:41;97992.86;;;4.21;100.0
63691;BME280;49837;57.280;27.070;2023-03-15T02:42:39;97991.42;;;4.23;100.0
63691;BME280;49837;57.280;27.070;2023-03-15T02:43:40;97999.14;;;4.12;100.0
63691;BME280;49837;57.280;27.070;2023-03-15T02:44:42;98000.12;;;4.25;100.0
63691;BME280;49837;57.280;27.070;2023-03-15T02:45:40;98007.38;;;4.21;100.0
63691;BME280;49837;57.280;27.070;2023-03-15T02:46:42;98006.44;;;4.17;100.0
63691;BME280;49837;57.280;27.070;2023-03-15T02:47:42;98005.52;;;4.17;100.0
63691;BME280;49837;57.280;27.070;2023-03-15T02:48:42;98011.52;;;4.18;100.0
63691;BME280;49837;57.280;27.070;2023-03-15T02:49:43;98010.82;;;4.3;100.0
63691;BME280;49837;57.280;27.070;2023-03-15T02:50:42;98018.12;;;4.29;100.0
63691;BME280;49837;57.280;27.070;2023-03-15T02:51:43;98020.55;;;4.19;100.0
63691;BME280;49837;57.280;27.070;2023-03-15T02:52:43;98017.05;;;4.2;100.0
63691;BME280;49837;57.280;27.070;2023-03-15T02:53:44;98014.05;;;4.32;100.0
63691;BME280;49837;57.280;27.070;2023-03-15T02:54:44;98016.33;;;4.26;100.0
63691;BME280;49837;57.280;27.070;2023-03-15T02:55:44;98022.19;;;4.28;100.0
63691;BME280;49837;57.280;27.070;2023-03-15T02:56:44;98022.52;;;4.22;100.0
63691;BME280;49837;57.280;27.070;2023-03-15T02:57:45;98023.5;;;4.24;100.0
63691;BME280;49837;57.280;27.070;2023-03-15T02:58:45;98024.59;;;4.35;100.0
63691;BME280;49837;57.280;27.070;2023-03-15T02:59:46;98027.23;;;4.3;100.0
63691;BME280;49837;57.280;27.070;2023-03-15T03:00:46;98023.83;;;4.24;100.0
63691;BME280;49837;57.280;27.070;2023-03-15T03:01:46;98029.88;;;4.21;100.0
63691;BME280;49837;57.280;27.070;2023-03-15T03:02:47;98025.84;;;4.3;100.0
63691;BME280;49837;57.280;27.070;2023-03-15T03:03:47;98022.06;;;4.27;100.0
63691;BME280;49837;57.280;27.070;2023-03-15T03:04:48;98016.5;;;4.23;100.0
63691;BME280;49837;57.280;27.070;2023-03-15T03:05:48;98009.06;;;4.09;100.0
63691;BME280;49837;57.280;27.070;2023-03-15T03:06:48;98010.68;;;4.2;100.0
63691;BME280;49837;57.280;27.070;2023-03-15T03:07:49;98012.79;;;4.26;100.0
63691;BME280;49837;57.280;27.070;2023-03-15T03:08:49;98011.95;;;4.28;100.0
63691;BME280;49837;57.280;27.070;2023-03-15T03:09:49;98011.27;;;4.27;100.0
63691;BME280;49837;57.280;27.070;2023-03-15T03:10:50;98016.96;;;4.24;100.0
63691;BME280;49837;57.280;27.070;2023-03-15T03:11:51;98018.51;;;4.19;100.0
63691;BME280;49837;57.280;27.070;2023-03-15T03:12:51;98019.02;;;4.16;100.0
63691;BME280;49837;57.280;27.070;2023-03-15T03:13:51;98022.06;;;4.14;100.0
63691;BME280;49837;57.280;27.070;2023-03-15T03:14:51;98027.73;;;4.28;100.0
63691;BME280;49837;57.280;27.070;2023-03-15T03:15:52;98026.31;;;4.22;100.0
63691;BME280;49837;57.280;27.070;2023-03-15T03:16:52;98033.58;;;4.22;100.0
63691;BME280;49837;57.280;27.070;2023-03-15T03:17:52;98033.17;;;4.24;100.0
63691;BME280;49837;57.280;27.070;2023-03-15T03:18:53;98026.69;;;4.31;100.0
63691;BME280;49837;57.280;27.070;2023-03-15T03:19:53;98025.75;;;4.28;100.0
63691;BME280;49837;57.280;27.070;2023-03-15T03:21:00;98026.47;;;4.24;100.0
63691;BME280;49837;57.280;27.070;2023-03-15T03:21:58;98033.06;;;4.2;100.0
63691;BME280;49837;57.280;27.070;2023-03-15T03:22:59;98030.76;;;4.11;100.0
63691;BME280;49837;57.280;27.070;2023-03-15T03:23:59;98032.89;;;4.2;100.0
63691;BME280;49837;57.280;27.070;2023-03-15T03:24:59;98034.95;;;4.31;100.0
63691;BME280;49837;57.280;27.070;2023-03-15T03:26:00;98038.3;;;4.21;100.0
63691;BME280;49837;57.280;27.070;2023-03-15T03:27:00;98038.27;;;4.22;100.0
63691;BME280;49837;57.280;27.070;2023-03-15T03:28:00;98041.29;;;4.23;100.0
63691;BME280;49837;57.280;27.070;2023-03-15T03:29:01;98040.47;;;4.22;100.0
63691;BME280;49837;57.280;27.070;2023-03-15T03:30:06;98037.48;;;4.21;100.0
63691;BME280;49837;57.280;27.070;2023-03-15T03:31:04;98039.61;;;4.23;100.0
63691;BME280;49837;57.280;27.070;2023-03-15T03:32:04;98039.44;;;4.24;100.0
63691;BME280;49837;57.280;27.070;2023-03-15T03:33:05;98038.45;;;4.23;100.0
63691;BME280;49837;57.280;27.070;2023-03-15T03:34:05;98035.55;;;4.18;100.0
63691;BME280;49837;57.280;27.070;2023-03-15T03:35:06;98039.84;;;4.22;100.0
63691;BME280;49837;57.280;27.070;2023-03-15T03:36:06;98040.5;;;4.24;100.0
63691;BME280;49837;57.280;27.070;2023-03-15T03:37:06;98038.43;;;4.22;100.0
63691;BME280;49837;57.280;27.070;2023-03-15T03:38:08;98041.39;;;4.29;100.0
63691;BME280;49837;57.280;27.070;2023-03-15T03:39:07;98040.88;;;4.27;100.0
63691;BME280;49837;57.280;27.070;2023-03-15T03:40:08;98041.94;;;4.25;100.0
63691;BME280;49837;57.280;27.070;2023-03-15T03:41:08;98037.22;;;4.19;100.0
63691;BME280;49837;57.280;27.070;2023-03-15T03:42:08;98040.15;;;4.14;100.0
63691;BME280;49837;57.280;27.070;2023-03-15T03:43:08;98040.48;;;4.27;100.0
63691;BME280;49837;57.280;27.070;2023-03-15T03:44:09;98040.31;;;4.27;100.0
63691;BME280;49837;57.280;27.070;2023-03-15T03:45:10;98039.52;;;4.28;100.0
63691;BME280;49837;57.280;27.070;2023-03-15T03:46:10;98041.94;;;4.25;100.0
63691;BME280;49837;57.280;27.070;2023-03-15T03:47:10;98034.09;;;4.23;100.0
63691;BME280;49837;57.280;27.070;2023-03-15T03:48:10;98026.45;;;4.09;100.0
63691;BME280;49837;57.280;27.070;2023-03-15T03:49:11;98023.66;;;4.14;100.0
63691;BME280;49837;57.280;27.070;2023-03-15T03:50:11;98027.78;;;4.13;100.0
63691;BME280;49837;57.280;27.070;2023-03-15T03:51:11;98032.39;;;4.14;100.0
63691;BME280;49837;57.280;27.070;2023-03-15T03:52:12;98027.7;;;4.29;100.0
63691;BME280;49837;57.280;27.070;2023-03-15T03:53:12;98025.18;;;4.3;100.0
63691;BME280;49837;57.280;27.070;2023-03-15T03:54:13;98028.92;;;4.22;100.0
63691;BME280;49837;57.280;27.070;2023-03-15T03:55:14;98038.65;;;4.16;100.0
63691;BME280;49837;57.280;27.070;2023-03-15T03:56:14;98041.73;;;4.22;100.0
63691;BME280;49837;57.280;27.070;2023-03-15T03:57:14;98046.33;;;4.25;100.0
63691;BME280;49837;57.280;27.070;2023-03-15T03:58:15;98050.64;;;4.22;100.0
63691;BME280;49837;57.280;27.070;2023-03-15T03:59:15;98050.2;;;4.23;100.0
63691;BME280;49837;57.280;27.070;2023-03-15T04:00:16;98051.64;;;4.2;100.0
63691;BME280;49837;57.280;27.070;2023-03-15T04:01:16;98048.88;;;4.23;100.0
63691;BME280;49837;57.280;27.070;2023-03-15T04:02:16;98055.69;;;4.34;100.0
63691;BME280;49837;57.280;27.070;2023-03-15T04:03:16;98054.93;;;4.29;100.0
63691;BME280;49837;57.280;27.070;2023-03-15T04:04:17;98054.1;;;4.29;100.0
63691;BME280;49837;57.280;27.070;2023-03-15T04:05:17;98050.66;;;4.24;100.0
63691;BME280;49837;57.280;27.070;2023-03-15T04:06:19;98051.55;;;4.18;100.0
63691;BME280;49837;57.280;27.070;2023-03-15T04:07:19;98052.92;;;4.07;100.0
63691;BME280;49837;57.280;27.070;2023-03-15T04:08:19;98055.22;;;4.1;100.0
63691;BME280;49837;57.280;27.070;2023-03-15T04:09:19;98047.54;;;4.21;100.0
63691;BME280;49837;57.280;27.070;2023-03-15T04:10:19;98042.66;;;4.26;100.0
63691;BME280;49837;57.280;27.070;2023-03-15T04:11:19;98039.73;;;4.24;100.0
63691;BME280;49837;57.280;27.070;2023-03-15T04:12:21;98037.83;;;4.29;100.0
63691;BME280;49837;57.280;27.070;2023-03-15T04:13:21;98051.36;;;4.29;100.0
63691;BME280;49837;57.280;27.070;2023-03-15T04:14:21;98051.56;;;4.28;100.0
63691;BME280;49837;57.280;27.070;2023-03-15T04:15:22;98054.79;;;4.36;100.0
63691;BME280;49837;57.280;27.070;2023-03-15T04:16:21;98049.11;;;4.17;100.0
63691;BME280;49837;57.280;27.070;2023-03-15T04:17:22;98051.76;;;4.23;100.0
63691;BME280;49837;57.280;27.070;2023-03-15T04:18:23;98053.39;;;4.26;100.0
63691;BME280;49837;57.280;27.070;2023-03-15T04:19:23;98057.84;;;4.28;100.0
63691;BME280;49837;57.280;27.070;2023-03-15T04:20:26;98056.81;;;4.22;100.0
63691;BME280;49837;57.280;27.070;2023-03-15T04:21:23;98054.04;;;4.22;100.0
63691;BME280;49837;57.280;27.070;2023-03-15T04:22:24;98052.74;;;4.16;100.0
63691;BME280;49837;57.280;27.070;2023-03-15T04:23:24;98056.67;;;4.17;100.0
63691;BME280;49837;57.280;27.070;2023-03-15T04:24:24;98054.67;;;4.2;100.0
63691;BME280;49837;57.280;27.070;2023-03-15T04:25:25;98057.62;;;4.25;100.0
63691;BME280;49837;57.280;27.070;2023-03-15T04:26:26;98060.17;;;4.23;100.0
63691;BME280;49837;57.280;27.070;2023-03-15T04:27:26;98059.27;;;4.18;100.0
63691;BME280;49837;57.280;27.070;2023-03-15T04:28:26;98060.06;;;4.18;100.0
63691;BME280;49837;57.280;27.070;2023-03-15T04:29:27;98058.11;;;4.18;100.0
63691;BME280;49837;57.280;27.070;2023-03-15T04:30:28;98064.61;;;4.13;100.0
63691;BME280;49837;57.280;27.070;2023-03-15T04:31:27;98068.41;;;4.13;100.0
63691;BME280;49837;57.280;27.070;2023-03-15T04:32:27;98073.9;;;4.09;100.0
63691;BME280;49837;57.280;27.070;2023-03-15T04:33:28;98080.67;;;4.15;100.0
63691;BME280;49837;57.280;27.070;2023-03-15T04:34:28;98079.41;;;4.23;100.0
63691;BME280;49837;57.280;27.070;2023-03-15T04:35:31;98078.14;;;4.26;100.0
63691;BME280;49837;57.280;27.070;2023-03-15T04:36:29;98077.8;;;4.28;100.0
63691;BME280;49837;57.280;27.070;2023-03-15T04:37:30;98077.45;;;4.33;100.0
63691;BME280;49837;57.280;27.070;2023-03-15T04:38:30;98076.72;;;4.2;100.0
63691;BME280;49837;57.280;27.070;2023-03-15T04:39:30;98074.47;;;4.13;100.0
63691;BME280;49837;57.280;27.070;2023-03-15T04:40:31;98078.83;;;4.14;100.0
63691;BME280;49837;57.280;27.070;2023-03-15T04:41:32;98078.33;;;4.23;100.0
63691;BME280;49837;57.280;27.070;2023-03-15T04:42:31;98079.97;;;4.16;100.0
63691;BME280;49837;57.280;27.070;2023-03-15T04:43:32;98086.12;;;4.19;100.0
63691;BME280;49837;57.280;27.070;2023-03-15T04:44:32;98081.0;;;4.29;100.0
63691;BME280;49837;57.280;27.070;2023-03-15T04:45:35;98079.59;;;4.35;100.0
63691;BME280;49837;57.280;27.070;2023-03-15T04:46:33;98079.08;;;4.31;100.0
63691;BME280;49837;57.280;27.070;2023-03-15T04:47:33;98081.61;;;4.34;100.0
63691;BME280;49837;57.280;27.070;2023-03-15T04:48:34;98084.42;;;4.33;100.0
63691;BME280;49837;57.280;27.070;2023-03-15T04:49:34;98082.03;;;4.21;100.0
63691;BME280;49837;57.280;27.070;2023-03-15T04:50:34;98074.17;;;4.15;100.0
63691;BME280;49837;57.280;27.070;2023-03-15T04:51:35;98084.12;;;4.18;100.0
63691;BME280;49837;57.280;27.070;2023-03-15T04:52:38;98081.41;;;4.27;100.0
63691;BME280;49837;57.280;27.070;2023-03-15T04:53:35;98084.42;;;4.32;100.0
63691;BME280;49837;57.280;27.070;2023-03-15T04:54:36;98081.05;;;4.18;100.0
63691;BME280;49837;57.280;27.070;2023-03-15T04:55:36;98080.03;;;4.32;100.0
63691;BME280;49837;57.280;27.070;2023-03-15T04:56:37;98088.34;;;4.34;100.0
63691;BME280;49837;57.280;27.070;2023-03-15T04:57:37;98084.42;;;4.32;100.0
63691;BME280;49837;57.280;27.070;2023-03-15T04:58:37;98084.3;;;4.22;100.0
63691;BME280;49837;57.280;27.070;2023-03-15T04:59:38;98086.0;;;4.25;100.0
63691;BME280;49837;57.280;27.070;2023-03-15T05:00:38;98088.97;;;4.19;100.0
63691;BME280;49837;57.280;27.070;2023-03-15T05:01:38;98089.56;;;4.18;100.0
63691;BME280;49837;57.280;27.070;2023-03-15T05:02:39;98089.98;;;4.2;100.0
63691;BME280;49837;57.280;27.070;2023-03-15T05:03:39;98094.3;;;4.22;100.0
63691;BME280;49837;57.280;27.070;2023-03-15T05:04:40;98092.55;;;4.07;100.0
63691;BME280;49837;57.280;27.070;2023-03-15T05:05:40;98098.34;;;4.1;100.0
63691;BME280;49837;57.280;27.070;2023-03-15T05:06:40;98094.38;;;4.13;100.0
63691;BME280;49837;57.280;27.070;2023-03-15T05:07:41;98097.08;;;4.2;100.0
63691;BME280;49837;57.280;27.070;2023-03-15T05:08:41;98101.32;;;4.17;100.0
63691;BME280;49837;57.280;27.070;2023-03-15T05:09:43;98100.84;;;4.21;100.0
63691;BME280;49837;57.280;27.070;2023-03-15T05:10:42;98102.36;;;4.27;100.0
63691;BME280;49837;57.280;27.070;2023-03-15T05:11:42;98109.08;;;4.33;100.0
63691;BME280;49837;57.280;27.070;2023-03-15T05:12:43;98114.52;;;4.18;100.0
63691;BME280;49837;57.280;27.070;2023-03-15T05:13:43;98112.66;;;4.23;100.0
63691;BME280;49837;57.280;27.070;2023-03-15T05:14:43;98117.86;;;4.25;100.0
63691;BME280;49837;57.280;27.070;2023-03-15T05:15:44;98115.64;;;4.25;100.0
63691;BME280;49837;57.280;27.070;2023-03-15T05:16:44;98125.37;;;4.2;100.0
63691;BME280;49837;57.280;27.070;2023-03-15T05:17:44;98115.84;;;4.19;100.0
63691;BME280;49837;57.280;27.070;2023-03-15T05:18:45;98116.99;;;4.18;100.0
63691;BME280;49837;57.280;27.070;2023-03-15T05:19:45;98113.99;;;4.09;100.0
63691;BME280;49837;57.280;27.070;2023-03-15T05:20:45;98122.08;;;4.18;100.0
63691;BME280;49837;57.280;27.070;2023-03-15T05:21:46;98117.53;;;4.22;100.0
63691;BME280;49837;57.280;27.070;2023-03-15T05:22:46;98123.78;;;4.3;100.0
63691;BME280;49837;57.280;27.070;2023-03-15T05:23:47;98133.38;;;4.31;100.0
63691;BME280;49837;57.280;27.070;2023-03-15T05:24:47;98138.73;;;4.2;100.0
63691;BME280;49837;57.280;27.070;2023-03-15T05:25:54;98138.3;;;4.01;100.0
63691;BME280;49837;57.280;27.070;2023-03-15T05:26:52;98139.12;;;4.03;100.0
63691;BME280;49837;57.280;27.070;2023-03-15T05:27:54;98138.27;;;4.13;100.0
63691;BME280;49837;57.280;27.070;2023-03-15T05:28:53;98139.59;;;4.19;100.0
63691;BME280;49837;57.280;27.070;2023-03-15T05:29:53;98140.5;;;4.24;100.0
63691;BME280;49837;57.280;27.070;2023-03-15T05:30:54;98142.72;;;4.24;100.0
63691;BME280;49837;57.280;27.070;2023-03-15T05:31:54;98142.7;;;4.2;100.0